Time;durP1;ratioP1;P1;durP2;ratioP2;P2;SDS_P1;SDS_P2;PMS_P1;PMS_P2;Temp;Humidity;BMP_temperature;BMP_pressure;BME280_temperature;BME280_humidity;BME280_pressure;Samples;Min_cycle;Max_cycle;Signal;HPM_P1;HPM_P2
2023/08/21 00:01:09;;;;;;;5.00;4.47;;;20.80;99.90;;;;;;5035147;28;20179;-76
2023/08/21 00:03:34;;;;;;;5.97;4.57;;;20.70;99.90;;;;;;5035096;28;20172;-76
2023/08/21 00:06:00;;;;;;;4.57;3.67;;;20.70;99.90;;;;;;5033743;28;20176;-75
2023/08/21 00:08:25;;;;;;;6.70;3.70;;;20.70;99.90;;;;;;5034837;28;20229;-76
2023/08/21 00:10:51;;;;;;;4.43;4.03;;;20.70;99.90;;;;;;5034678;28;20175;-76
2023/08/21 00:13:16;;;;;;;3.40;3.10;;;20.70;99.90;;;;;;5033522;28;20250;-75
2023/08/21 00:15:42;;;;;;;6.10;3.67;;;20.60;99.90;;;;;;5037086;28;20198;-75
2023/08/21 00:18:07;;;;;;;4.40;4.10;;;20.60;99.90;;;;;;5041122;28;20175;-76
2023/08/21 00:20:33;;;;;;;5.33;3.40;;;20.60;99.90;;;;;;5049565;28;20175;-76
2023/08/21 00:22:58;;;;;;;3.70;3.40;;;20.60;99.90;;;;;;5054197;28;20668;-76
2023/08/21 00:25:25;;;;;;;7.73;4.67;;;20.60;99.90;;;;;;5054193;28;20167;-74
2023/08/21 00:27:50;;;;;;;4.10;3.70;;;20.50;99.90;;;;;;5053047;28;20266;-75
2023/08/21 00:30:16;;;;;;;4.90;4.50;;;20.50;99.90;;;;;;5053200;28;20452;-76
2023/08/21 00:32:41;;;;;;;4.50;3.47;;;20.50;99.90;;;;;;5048821;28;20862;-76
2023/08/21 00:35:07;;;;;;;4.23;3.70;;;20.50;99.90;;;;;;5049606;28;20241;-75
2023/08/21 00:37:33;;;;;;;3.40;3.10;;;20.50;99.90;;;;;;5054054;28;20252;-76
2023/08/21 00:39:58;;;;;;;4.83;3.37;;;20.40;99.90;;;;;;5054154;28;20171;-74
2023/08/21 00:42:24;;;;;;;3.87;3.40;;;20.40;99.90;;;;;;5054140;28;20194;-76
2023/08/21 00:44:49;;;;;;;3.30;3.00;;;20.40;99.90;;;;;;5054058;28;20178;-76
2023/08/21 00:47:15;;;;;;;5.20;3.37;;;20.40;99.90;;;;;;5045587;28;20183;-75
2023/08/21 00:49:41;;;;;;;3.90;3.20;;;20.40;99.90;;;;;;5051791;28;20189;-75
2023/08/21 00:52:10;;;;;;;3.80;3.50;;;20.30;99.90;;;;;;5052664;28;20226;-74
2023/08/21 00:54:36;;;;;;;6.87;3.60;;;20.30;99.90;;;;;;5050652;28;20417;-76
2023/08/21 00:57:02;;;;;;;4.77;4.37;;;20.30;99.90;;;;;;5053649;28;20410;-76
2023/08/21 00:59:28;;;;;;;3.40;2.70;;;20.30;99.90;;;;;;5046371;28;20167;-75
2023/08/21 01:01:54;;;;;;;4.43;3.27;;;20.30;99.90;;;;;;5045322;28;20911;-76
2023/08/21 01:04:20;;;;;;;2.60;2.40;;;20.30;99.90;;;;;;5046191;28;20426;-76
2023/08/21 01:06:48;;;;;;;3.30;3.00;;;20.30;99.90;;;;;;5051505;28;20277;-75
2023/08/21 01:09:33;;;;;;;5.20;3.07;;;20.30;99.90;;;;;;5050643;28;20447;-76
2023/08/21 01:12:36;;;;;;;4.87;3.13;;;20.30;99.90;;;;;;5048405;28;20464;-74
2023/08/21 01:15:04;;;;;;;2.73;2.53;;;20.30;99.90;;;;;;5051910;28;20437;-76
2023/08/21 01:17:30;;;;;;;3.70;3.40;;;20.30;99.90;;;;;;5053558;28;20393;-76
2023/08/21 01:19:56;;;;;;;4.73;3.10;;;20.30;99.90;;;;;;5053295;28;20405;-75
2023/08/21 01:22:27;;;;;;;3.70;2.67;;;20.20;99.90;;;;;;5053363;28;20194;-75
2023/08/21 01:24:53;;;;;;;2.20;2.00;;;20.20;99.90;;;;;;5051822;28;20421;-76
2023/08/21 01:27:21;;;;;;;3.00;2.40;;;20.20;99.90;;;;;;5053194;28;20402;-75
2023/08/21 01:29:47;;;;;;;2.90;2.40;;;20.20;99.90;;;;;;5053203;28;20397;-76
2023/08/21 01:32:18;;;;;;;2.83;2.60;;;20.20;99.90;;;;;;5051799;28;20469;-76
2023/08/21 01:34:45;;;;;;;2.70;2.20;;;20.10;99.90;;;;;;5044382;28;20504;-74
2023/08/21 01:37:11;;;;;;;3.00;1.93;;;20.10;99.90;;;;;;5047555;28;20412;-75
2023/08/21 01:39:36;;;;;;;3.60;2.20;;;20.10;99.90;;;;;;5053027;28;20420;-76
2023/08/21 01:42:02;;;;;;;10.20;2.70;;;20.00;99.90;;;;;;5052866;28;20421;-76
2023/08/21 01:44:27;;;;;;;2.20;2.00;;;20.00;99.90;;;;;;5052925;28;20173;-74
2023/08/21 01:46:53;;;;;;;3.60;3.10;;;20.00;99.90;;;;;;5052526;28;20221;-75
2023/08/21 01:49:19;;;;;;;3.20;2.47;;;20.00;99.90;;;;;;5051744;28;20174;-76
2023/08/21 01:51:45;;;;;;;4.50;2.10;;;20.00;99.90;;;;;;5051402;28;20213;-76
2023/08/21 01:54:11;;;;;;;2.90;2.57;;;20.00;99.90;;;;;;5051487;28;20425;-76
2023/08/21 01:56:36;;;;;;;2.33;2.13;;;19.90;99.90;;;;;;5050999;28;20463;-75
2023/08/21 01:59:03;;;;;;;3.50;2.20;;;19.90;99.90;;;;;;5052665;28;20198;-75
2023/08/21 02:01:29;;;;;;;2.67;2.47;;;19.90;99.90;;;;;;5051264;28;20197;-76
2023/08/21 02:03:54;;;;;;;3.70;2.40;;;19.90;99.90;;;;;;5052387;28;20405;-76
2023/08/21 02:06:20;;;;;;;3.43;2.00;;;19.90;99.90;;;;;;5052070;28;20163;-76
2023/08/21 02:08:45;;;;;;;3.37;2.60;;;19.90;99.90;;;;;;5051331;28;20775;-76
2023/08/21 02:11:11;;;;;;;3.93;2.67;;;19.80;99.90;;;;;;5052222;28;20187;-76
2023/08/21 02:13:37;;;;;;;2.43;2.10;;;19.80;99.90;;;;;;5052446;28;20174;-75
2023/08/21 02:16:03;;;;;;;2.97;2.37;;;19.80;99.90;;;;;;5051874;28;20163;-76
2023/08/21 02:18:29;;;;;;;3.90;2.80;;;19.80;99.90;;;;;;5052417;28;20190;-76
2023/08/21 02:20:54;;;;;;;4.00;2.27;;;19.80;99.90;;;;;;5052301;28;20163;-76
2023/08/21 02:23:20;;;;;;;2.50;2.30;;;19.80;99.90;;;;;;5050915;28;20434;-76
2023/08/21 02:25:45;;;;;;;2.77;2.50;;;19.80;99.90;;;;;;5050800;28;20718;-75
2023/08/21 02:28:11;;;;;;;4.17;2.60;;;19.80;99.90;;;;;;5052143;28;20185;-75
2023/08/21 02:30:40;;;;;;;3.30;2.80;;;19.70;99.90;;;;;;5052270;28;20171;-76
2023/08/21 02:33:06;;;;;;;3.60;2.30;;;19.70;99.90;;;;;;5043633;28;20277;-76
2023/08/21 02:35:31;;;;;;;3.00;2.20;;;19.70;99.90;;;;;;5031897;28;20442;-76
2023/08/21 02:37:57;;;;;;;4.00;2.57;;;19.70;99.90;;;;;;5047165;28;20163;-74
2023/08/21 02:40:22;;;;;;;2.63;2.03;;;19.70;99.90;;;;;;5047087;28;20602;-76
2023/08/21 02:42:48;;;;;;;3.00;2.43;;;19.70;99.90;;;;;;5051749;28;20550;-75
2023/08/21 02:45:13;;;;;;;3.27;2.40;;;19.70;99.90;;;;;;5051777;28;20532;-75
2023/08/21 02:47:40;;;;;;;4.67;2.93;;;19.70;99.90;;;;;;5051948;28;20163;-76
2023/08/21 02:50:07;;;;;;;4.83;2.50;;;19.70;99.90;;;;;;5051928;28;20510;-75
2023/08/21 02:52:33;;;;;;;3.40;2.13;;;19.70;99.90;;;;;;5051751;28;20538;-77
2023/08/21 02:54:59;;;;;;;3.80;2.57;;;19.70;99.90;;;;;;5051786;28;20427;-76
2023/08/21 02:57:26;;;;;;;3.10;2.80;;;19.70;99.90;;;;;;5051806;28;20796;-76
2023/08/21 02:59:52;;;;;;;4.13;2.73;;;19.70;99.90;;;;;;5051870;28;20163;-76
2023/08/21 03:02:18;;;;;;;2.40;2.00;;;19.70;99.90;;;;;;5050502;28;20977;-76
2023/08/21 03:04:43;;;;;;;3.23;1.90;;;19.70;99.90;;;;;;5051672;28;20463;-76
2023/08/21 03:07:09;;;;;;;3.10;1.90;;;19.80;99.90;;;;;;5051427;28;20440;-76
2023/08/21 03:09:36;;;;;;;3.83;1.70;;;19.80;99.90;;;;;;5051744;28;20171;-76
2023/08/21 03:12:02;;;;;;;3.10;2.47;;;19.90;99.90;;;;;;5051271;28;20217;-76
2023/08/21 03:14:27;;;;;;;4.53;2.23;;;19.90;99.90;;;;;;5051765;28;20476;-76
2023/08/21 03:16:53;;;;;;;4.07;1.97;;;19.90;99.90;;;;;;5051554;28;20185;-76
2023/08/21 03:19:18;;;;;;;4.50;2.50;;;19.90;99.90;;;;;;5051526;28;20195;-75
2023/08/21 03:21:44;;;;;;;3.27;2.30;;;19.90;99.90;;;;;;5051520;28;20273;-76
2023/08/21 03:24:09;;;;;;;3.47;2.70;;;19.90;99.90;;;;;;5051668;28;20181;-75
2023/08/21 03:26:35;;;;;;;3.23;2.20;;;19.80;99.90;;;;;;5050029;28;20225;-75
2023/08/21 03:29:01;;;;;;;2.50;2.30;;;19.80;99.90;;;;;;5054728;28;20216;-76
2023/08/21 03:31:27;;;;;;;3.83;2.60;;;19.80;99.90;;;;;;5055647;28;20281;-75
2023/08/21 03:33:52;;;;;;;2.87;2.17;;;19.80;99.90;;;;;;5044588;28;20801;-76
2023/08/21 03:36:19;;;;;;;3.60;2.43;;;19.80;99.90;;;;;;5046629;28;20549;-75
2023/08/21 03:38:45;;;;;;;3.10;2.60;;;19.90;99.90;;;;;;5053656;28;20171;-76
2023/08/21 03:41:11;;;;;;;4.00;2.80;;;19.90;99.90;;;;;;5055293;28;20415;-76
2023/08/21 03:43:37;;;;;;;2.70;2.27;;;19.90;99.90;;;;;;5055454;28;20409;-74
2023/08/21 03:46:02;;;;;;;3.70;2.30;;;20.00;99.90;;;;;;5055031;28;20459;-76
2023/08/21 03:48:28;;;;;;;3.40;2.47;;;20.00;99.90;;;;;;5055364;28;20171;-75
2023/08/21 03:50:53;;;;;;;3.20;2.50;;;20.00;99.90;;;;;;5053870;28;20167;-77
2023/08/21 03:53:19;;;;;;;2.70;2.10;;;20.10;99.90;;;;;;5055075;28;20186;-75
2023/08/21 03:55:45;;;;;;;3.47;2.33;;;20.10;99.90;;;;;;5054673;28;20538;-76
2023/08/21 03:58:10;;;;;;;4.27;2.30;;;20.10;99.90;;;;;;5053763;28;20181;-76
2023/08/21 04:00:36;;;;;;;3.70;2.47;;;20.10;99.90;;;;;;5055003;28;20163;-76
2023/08/21 04:03:02;;;;;;;5.57;3.30;;;20.00;99.90;;;;;;5053635;28;20187;-75
2023/08/21 04:05:27;;;;;;;5.00;3.80;;;20.00;99.90;;;;;;5054822;28;20163;-75
2023/08/21 04:07:53;;;;;;;4.40;4.00;;;19.90;99.90;;;;;;5055063;28;20420;-76
2023/08/21 04:10:18;;;;;;;3.57;3.27;;;19.90;99.90;;;;;;5054975;28;20197;-76
2023/08/21 04:12:44;;;;;;;3.13;2.20;;;19.90;99.90;;;;;;5055095;28;20213;-75
2023/08/21 04:15:10;;;;;;;6.03;2.40;;;19.80;99.90;;;;;;5054418;28;20567;-74
2023/08/21 04:17:35;;;;;;;8.00;2.57;;;19.80;99.90;;;;;;5054662;28;20258;-76
2023/08/21 04:20:01;;;;;;;2.83;2.57;;;19.70;99.90;;;;;;5050917;28;20187;-71
2023/08/21 04:22:26;;;;;;;4.33;3.37;;;19.70;99.90;;;;;;5042502;28;20568;-72
2023/08/21 04:24:52;;;;;;;16.67;9.40;;;19.70;99.90;;;;;;5045995;28;20211;-72
2023/08/21 04:27:17;;;;;;;13.10;9.43;;;19.70;99.90;;;;;;5048729;28;20698;-73
2023/08/21 04:29:43;;;;;;;9.30;5.50;;;19.70;99.90;;;;;;5053028;28;20174;-73
2023/08/21 04:32:08;;;;;;;3.87;2.93;;;19.70;99.90;;;;;;5054081;28;20206;-73
2023/08/21 04:34:34;;;;;;;3.10;2.80;;;19.70;99.90;;;;;;5044618;28;20201;-73
2023/08/21 04:37:00;;;;;;;2.77;2.33;;;19.70;99.90;;;;;;5045822;28;20174;-72
2023/08/21 04:39:25;;;;;;;5.90;2.80;;;19.70;99.90;;;;;;5054081;28;20175;-69
2023/08/21 04:41:51;;;;;;;2.77;2.43;;;19.70;99.90;;;;;;5054055;28;20198;-70
2023/08/21 04:44:17;;;;;;;2.37;2.17;;;19.80;99.90;;;;;;5054113;28;20177;-69
2023/08/21 04:46:43;;;;;;;3.10;2.10;;;19.90;99.90;;;;;;5053707;28;20167;-69
2023/08/21 04:49:09;;;;;;;4.37;2.77;;;19.90;99.90;;;;;;5053978;28;20171;-69
2023/08/21 04:51:34;;;;;;;3.27;2.93;;;19.90;99.90;;;;;;5053560;28;20467;-70
2023/08/21 04:54:00;;;;;;;4.20;2.90;;;19.90;99.90;;;;;;5053932;28;20167;-70
2023/08/21 04:56:26;;;;;;;2.93;2.70;;;20.00;99.90;;;;;;5053630;28;20685;-70
2023/08/21 04:58:52;;;;;;;3.17;2.50;;;20.00;99.90;;;;;;5052628;28;20262;-70
2023/08/21 05:01:17;;;;;;;4.63;3.33;;;20.00;99.90;;;;;;5053628;28;20440;-69
2023/08/21 05:03:43;;;;;;;4.83;2.40;;;20.00;99.90;;;;;;5053739;28;20415;-70
2023/08/21 05:06:09;;;;;;;2.50;2.30;;;20.10;99.90;;;;;;5053846;28;20167;-68
2023/08/21 05:08:34;;;;;;;4.20;2.80;;;20.10;99.90;;;;;;5053448;28;20187;-70
2023/08/21 05:11:01;;;;;;;4.63;2.90;;;20.10;99.90;;;;;;5053511;28;20532;-69
2023/08/21 05:13:27;;;;;;;7.60;4.50;;;20.20;99.90;;;;;;5053625;28;20163;-70
2023/08/21 05:15:57;;;;;;;4.10;3.80;;;20.20;99.90;;;;;;5053152;28;20745;-69
2023/08/21 05:18:23;;;;;;;3.73;3.43;;;20.30;99.90;;;;;;5053453;28;20409;-69
2023/08/21 05:20:50;;;;;;;4.10;3.80;;;20.30;99.90;;;;;;5053517;28;20401;-70
2023/08/21 05:23:16;;;;;;;4.57;2.67;;;20.40;99.90;;;;;;5053103;28;20429;-69
2023/08/21 05:25:43;;;;;;;3.63;3.33;;;20.50;99.90;;;;;;5053147;28;20409;-69
2023/08/21 05:28:08;;;;;;;3.67;3.37;;;20.60;99.90;;;;;;5053301;28;20573;-70
2023/08/21 05:30:36;;;;;;;6.43;3.57;;;20.70;99.90;;;;;;5053182;28;20403;-70
2023/08/21 05:33:02;;;;;;;5.23;3.57;;;20.70;99.90;;;;;;5048365;28;20240;-70
2023/08/21 05:35:27;;;;;;;3.33;2.90;;;20.80;99.90;;;;;;5041027;28;20415;-70
2023/08/21 05:37:52;;;;;;;4.60;2.60;;;20.90;99.90;;;;;;5052020;28;20431;-70
2023/08/21 05:40:18;;;;;;;4.30;2.93;;;21.00;99.90;;;;;;5043355;28;20179;-70
2023/08/21 05:42:44;;;;;;;6.33;3.23;;;21.10;99.90;;;;;;5044539;28;20206;-69
2023/08/21 05:45:10;;;;;;;5.10;3.10;;;21.30;99.90;;;;;;5048106;28;20417;-69
2023/08/21 05:47:36;;;;;;;2.93;2.73;;;21.40;99.90;;;;;;5052579;28;20418;-69
2023/08/21 05:50:02;;;;;;;6.13;2.77;;;21.70;99.90;;;;;;5052510;28;20175;-70
2023/08/21 05:52:27;;;;;;;2.80;2.30;;;21.90;99.90;;;;;;5052504;28;20205;-70
2023/08/21 05:54:53;;;;;;;3.23;2.53;;;22.10;99.90;;;;;;5052420;28;20409;-70
2023/08/21 05:57:18;;;;;;;3.30;2.73;;;22.40;99.90;;;;;;5052396;28;20202;-69
2023/08/21 05:59:45;;;;;;;2.77;2.57;;;22.50;99.90;;;;;;5051399;28;20543;-69
2023/08/21 06:02:11;;;;;;;3.33;2.30;;;22.50;99.90;;;;;;5043766;28;20202;-69
2023/08/21 06:04:39;;;;;;;4.70;2.67;;;22.60;99.90;;;;;;5040240;28;20457;-69
2023/08/21 06:07:04;;;;;;;2.70;2.47;;;22.60;99.90;;;;;;5052022;28;20527;-69
2023/08/21 06:09:31;;;;;;;3.07;2.87;;;22.70;99.90;;;;;;5051862;28;20517;-69
2023/08/21 06:11:57;;;;;;;6.20;3.37;;;22.70;99.90;;;;;;5052400;28;20202;-69
2023/08/21 06:14:28;;;;;;;5.00;2.90;;;22.80;99.90;;;;;;5045835;28;20438;-72
2023/08/21 06:16:57;;;;;;;3.50;2.67;;;23.40;99.90;;;;;;5048007;28;20228;-73
2023/08/21 06:19:23;;;;;;;3.83;2.83;;;24.00;99.90;;;;;;5050916;28;20409;-73
2023/08/21 06:21:48;;;;;;;4.13;3.10;;;24.30;99.90;;;;;;5052264;28;20813;-73
2023/08/21 06:24:14;;;;;;;3.10;2.87;;;24.80;99.90;;;;;;5052351;28;20171;-73
2023/08/21 06:26:40;;;;;;;5.17;2.70;;;25.50;99.90;;;;;;5051888;28;20201;-73
2023/08/21 06:29:05;;;;;;;3.70;2.63;;;26.20;99.90;;;;;;5052177;28;20171;-72
2023/08/21 06:31:31;;;;;;;5.40;3.43;;;27.00;99.90;;;;;;5052031;28;20453;-72
2023/08/21 06:33:57;;;;;;;4.70;2.77;;;27.80;99.90;;;;;;5042954;28;20244;-73
2023/08/21 06:36:22;;;;;;;2.70;2.50;;;28.90;99.90;;;;;;5043470;28;20166;-74
2023/08/21 06:38:48;;;;;;;6.97;3.40;;;29.90;99.90;;;;;;5042857;28;20266;-73
2023/08/21 06:41:13;;;;;;;3.90;2.70;;;31.00;99.90;;;;;;5051804;28;20171;-73
2023/08/21 06:43:39;;;;;;;4.70;3.83;;;32.10;99.90;;;;;;5051879;28;21001;-73
2023/08/21 06:46:05;;;;;;;4.60;3.77;;;32.70;95.10;;;;;;5051721;28;20167;-75
2023/08/21 06:48:31;;;;;;;4.50;4.10;;;33.60;92.30;;;;;;5046779;28;20183;-74
2023/08/21 06:50:56;;;;;;;4.50;4.10;;;34.40;84.40;;;;;;5051662;28;20178;-74
2023/08/21 06:53:22;;;;;;;3.97;3.67;;;35.10;73.90;;;;;;5051666;28;20437;-73
2023/08/21 06:55:47;;;;;;;4.80;4.50;;;35.80;69.60;;;;;;5051577;28;20170;-74
2023/08/21 06:58:13;;;;;;;7.27;4.47;;;36.10;62.70;;;;;;5051827;28;20250;-74
2023/08/21 07:00:39;;;;;;;4.67;4.37;;;36.00;59.40;;;;;;5051798;28;20205;-74
2023/08/21 07:03:07;;;;;;;6.73;4.57;;;35.80;59.10;;;;;;5053288;28;20196;-74
2023/08/21 07:05:33;;;;;;;5.00;4.30;;;35.70;58.00;;;;;;5054415;28;20175;-74
2023/08/21 07:07:59;;;;;;;7.90;4.90;;;36.10;58.00;;;;;;5055833;28;20434;-74
2023/08/21 07:10:24;;;;;;;5.00;4.50;;;36.60;55.20;;;;;;5055885;28;20401;-75
2023/08/21 07:12:50;;;;;;;5.00;4.57;;;37.40;54.20;;;;;;5055699;28;20600;-74
2023/08/21 07:15:16;;;;;;;6.13;5.57;;;38.20;54.00;;;;;;5055505;28;20171;-74
2023/08/21 07:17:41;;;;;;;4.17;3.03;;;38.70;50.40;;;;;;5054465;28;20250;-72
2023/08/21 07:20:07;;;;;;;4.37;3.90;;;39.60;50.40;;;;;;5055682;28;20170;-73
2023/08/21 07:22:33;;;;;;;3.40;2.87;;;40.50;48.90;;;;;;5055600;28;20246;-73
2023/08/21 07:25:00;;;;;;;6.83;3.10;;;41.20;46.90;;;;;;5055575;28;20405;-73
2023/08/21 07:27:26;;;;;;;4.13;3.83;;;41.80;44.60;;;;;;5055650;28;20167;-73
2023/08/21 07:29:51;;;;;;;4.43;3.87;;;41.00;40.80;;;;;;5055588;28;20383;-73
2023/08/21 07:32:17;;;;;;;3.37;3.17;;;40.50;43.20;;;;;;5055296;28;20737;-73
2023/08/21 07:34:42;;;;;;;5.63;4.13;;;39.80;43.40;;;;;;5049655;28;20635;-72
2023/08/21 07:37:09;;;;;;;6.20;3.30;;;38.80;44.70;;;;;;5044823;28;20222;-73
2023/08/21 07:39:34;;;;;;;7.30;3.80;;;38.00;45.90;;;;;;5051951;28;20232;-73
2023/08/21 07:42:00;;;;;;;4.20;3.30;;;37.90;47.30;;;;;;5055045;28;20437;-73
2023/08/21 07:44:26;;;;;;;3.53;3.23;;;38.30;47.90;;;;;;5055156;28;20183;-74
2023/08/21 07:46:52;;;;;;;3.60;3.03;;;38.60;47.90;;;;;;5054816;28;20179;-73
2023/08/21 07:49:17;;;;;;;3.73;2.83;;;39.00;47.30;;;;;;5055180;28;20416;-74
2023/08/21 07:51:43;;;;;;;4.70;3.43;;;39.80;47.00;;;;;;5054880;28;20210;-72
2023/08/21 07:54:08;;;;;;;4.93;3.20;;;40.20;45.50;;;;;;5055145;28;20167;-73
2023/08/21 07:56:35;;;;;;;3.47;3.10;;;40.00;44.90;;;;;;5054708;28;20182;-73
2023/08/21 07:59:02;;;;;;;4.23;3.27;;;39.30;44.90;;;;;;5054993;28;20249;-73
2023/08/21 08:01:27;;;;;;;4.43;3.00;;;39.10;45.50;;;;;;5054753;28;20440;-72
2023/08/21 08:03:53;;;;;;;5.10;4.70;;;39.00;45.50;;;;;;5055002;28;20394;-73
2023/08/21 08:06:18;;;;;;;4.47;4.00;;;38.60;45.20;;;;;;5054527;28;20250;-73
2023/08/21 08:08:44;;;;;;;4.33;3.93;;;37.50;45.50;;;;;;5054908;28;20536;-73
2023/08/21 08:11:10;;;;;;;6.27;4.03;;;36.60;46.20;;;;;;5054763;28;20199;-73
2023/08/21 08:13:35;;;;;;;4.53;4.13;;;36.00;47.70;;;;;;5054247;28;20167;-73
2023/08/21 08:16:01;;;;;;;4.43;3.90;;;35.50;48.70;;;;;;5054575;28;20190;-73
2023/08/21 08:18:26;;;;;;;3.73;3.20;;;35.00;50.10;;;;;;5054788;28;20170;-73
2023/08/21 08:20:52;;;;;;;4.37;3.83;;;35.10;51.20;;;;;;5054659;28;20167;-72
2023/08/21 08:23:19;;;;;;;6.50;3.90;;;35.30;51.60;;;;;;5054478;28;20202;-73
2023/08/21 08:25:45;;;;;;;3.70;2.80;;;35.40;51.80;;;;;;5054298;28;20405;-73
2023/08/21 08:28:10;;;;;;;3.20;2.80;;;35.60;52.20;;;;;;5054439;28;20409;-73
2023/08/21 08:30:36;;;;;;;3.20;2.90;;;36.70;51.70;;;;;;5054514;28;20167;-72
2023/08/21 08:33:01;;;;;;;5.87;3.73;;;38.60;49.50;;;;;;5053224;28;20709;-74
2023/08/21 08:35:27;;;;;;;3.57;3.27;;;40.30;46.00;;;;;;5054588;28;20171;-73
2023/08/21 08:37:53;;;;;;;3.60;3.30;;;42.10;43.70;;;;;;5054534;28;20163;-73
2023/08/21 08:40:18;;;;;;;3.93;3.37;;;44.00;42.20;;;;;;5054627;28;20167;-73
2023/08/21 08:42:44;;;;;;;5.43;4.00;;;45.20;37.50;;;;;;5054226;28;20195;-74
2023/08/21 08:45:13;;;;;;;4.60;4.20;;;46.60;37.90;;;;;;5054311;28;20217;-72
2023/08/21 08:47:40;;;;;;;4.57;3.87;;;48.10;35.90;;;;;;5048600;28;20195;-73
2023/08/21 08:50:08;;;;;;;4.10;3.70;;;49.10;33.90;;;;;;5046783;28;20462;-73
2023/08/21 08:52:38;;;;;;;4.83;3.87;;;49.90;32.70;;;;;;5053814;28;20461;-73
2023/08/21 08:55:06;;;;;;;5.90;5.50;;;50.60;31.30;;;;;;5053692;28;20816;-73
2023/08/21 08:57:32;;;;;;;4.57;4.00;;;51.00;29.20;;;;;;5052629;28;20441;-73
2023/08/21 08:59:58;;;;;;;4.47;4.07;;;51.50;29.20;;;;;;5053830;28;20503;-73
2023/08/21 09:02:26;;;;;;;4.87;4.47;;;52.10;28.90;;;;;;5053753;28;20187;-73
2023/08/21 09:04:52;;;;;;;5.53;4.10;;;52.40;28.40;;;;;;5053637;28;20828;-73
2023/08/21 09:07:19;;;;;;;3.80;3.47;;;52.70;27.50;;;;;;5053407;28;20449;-73
2023/08/21 09:09:49;;;;;;;3.40;3.20;;;53.20;27.80;;;;;;5052376;28;20171;-73
2023/08/21 09:12:15;;;;;;;3.70;3.40;;;53.60;27.80;;;;;;5053526;28;20484;-73
2023/08/21 09:14:41;;;;;;;4.87;3.43;;;54.00;27.30;;;;;;5053510;28;20496;-73
2023/08/21 09:17:07;;;;;;;4.27;3.63;;;54.40;27.10;;;;;;5053387;28;20422;-73
2023/08/21 09:19:33;;;;;;;4.13;3.53;;;54.80;26.70;;;;;;5053226;28;20432;-74
2023/08/21 09:22:07;;;;;;;3.80;3.50;;;55.20;26.60;;;;;;5053433;28;20815;-73
2023/08/21 09:24:32;;;;;;;6.07;3.97;;;55.60;26.10;;;;;;5052219;28;20576;-74
2023/08/21 09:27:00;;;;;;;4.07;3.77;;;55.80;25.80;;;;;;5051829;28;20404;-73
2023/08/21 09:29:25;;;;;;;5.00;4.50;;;56.10;25.30;;;;;;5053190;28;20166;-72
2023/08/21 09:31:55;;;;;;;4.37;4.03;;;56.20;24.80;;;;;;5053142;28;20987;-72
2023/08/21 09:34:21;;;;;;;4.90;4.60;;;56.40;24.80;;;;;;5046076;28;20179;-72
2023/08/21 09:36:54;;;;;;;4.23;3.93;;;56.60;25.00;;;;;;5038462;28;20476;-72
2023/08/21 09:39:19;;;;;;;4.70;4.30;;;56.80;24.80;;;;;;5051873;28;20290;-72
2023/08/21 09:41:56;;;;;;;5.00;4.60;;;56.70;23.40;;;;;;5052932;28;20527;-72
2023/08/21 09:44:21;;;;;;;4.73;4.33;;;56.30;22.60;;;;;;5053256;28;20173;-72
2023/08/21 09:46:49;;;;;;;4.60;4.20;;;56.10;23.80;;;;;;5052758;28;20774;-72
2023/08/21 09:49:17;;;;;;;6.20;5.63;;;55.80;23.60;;;;;;5052996;28;20163;-72
2023/08/21 09:51:44;;;;;;;6.90;5.20;;;55.50;23.60;;;;;;5052645;28;20870;-73
2023/08/21 09:54:11;;;;;;;4.90;4.40;;;55.40;23.20;;;;;;5052841;28;20409;-72
2023/08/21 09:56:37;;;;;;;5.47;4.90;;;55.30;23.50;;;;;;5052602;28;20398;-72
2023/08/21 09:59:03;;;;;;;7.47;6.23;;;55.40;23.90;;;;;;5052813;28;20427;-72
2023/08/21 10:01:33;;;;;;;5.43;4.97;;;55.10;22.90;;;;;;5051337;28;20441;-72
2023/08/21 10:04:02;;;;;;;12.13;5.40;;;55.20;23.90;;;;;;5052950;28;20397;-71
2023/08/21 10:06:29;;;;;;;6.97;5.40;;;55.40;23.60;;;;;;5052121;28;20775;-72
2023/08/21 10:08:56;;;;;;;5.83;4.73;;;55.50;23.10;;;;;;5052625;28;20543;-73
2023/08/21 10:11:23;;;;;;;6.00;4.80;;;55.30;22.90;;;;;;5047494;28;20460;-72
2023/08/21 10:13:50;;;;;;;6.33;5.73;;;55.50;23.90;;;;;;5044686;28;20448;-72
2023/08/21 10:16:18;;;;;;;5.63;5.13;;;55.40;23.20;;;;;;5052128;28;20769;-72
2023/08/21 10:18:45;;;;;;;5.80;5.40;;;55.50;23.30;;;;;;5052307;28;20417;-72
2023/08/21 10:21:13;;;;;;;5.60;5.20;;;55.60;23.40;;;;;;5050866;28;20392;-71
2023/08/21 10:23:40;;;;;;;4.97;4.57;;;55.80;23.30;;;;;;5035123;28;20462;-72
2023/08/21 10:26:08;;;;;;;5.70;5.20;;;56.00;23.30;;;;;;5043964;28;20417;-72
2023/08/21 10:28:54;;;;;;;5.47;5.03;;;56.30;23.10;;;;;;5048497;28;20419;-72
2023/08/21 10:31:29;;;;;;;6.30;5.70;;;56.60;23.40;;;;;;5051725;28;20543;-72
2023/08/21 10:33:55;;;;;;;6.00;5.60;;;56.70;23.00;;;;;;5050102;28;20812;-72
2023/08/21 10:36:42;;;;;;;6.30;5.90;;;56.80;22.00;;;;;;5041186;28;20428;-72
2023/08/21 10:39:18;;;;;;;6.33;5.83;;;56.50;22.20;;;;;;5050062;28;20216;-72
2023/08/21 10:41:58;;;;;;;6.73;6.10;;;56.60;22.50;;;;;;5065214;28;20435;-72
2023/08/21 10:44:38;;;;;;;7.17;6.67;;;56.70;22.50;;;;;;5046740;28;20521;-73
2023/08/21 10:47:20;;;;;;;6.93;6.37;;;56.80;21.90;;;;;;5050722;28;20423;-72
2023/08/21 10:49:51;;;;;;;7.20;6.70;;;56.80;22.30;;;;;;5052008;28;20937;-72
2023/08/21 10:52:24;;;;;;;6.27;5.77;;;56.80;22.80;;;;;;5051894;28;20457;-72
2023/08/21 10:54:53;;;;;;;6.67;6.20;;;56.70;22.30;;;;;;5051882;28;20401;-72
2023/08/21 10:57:19;;;;;;;7.13;6.40;;;56.60;21.80;;;;;;5051841;28;20769;-72
2023/08/21 10:59:59;;;;;;;6.50;6.10;;;56.40;21.70;;;;;;5052005;28;20471;-72
2023/08/21 11:02:29;;;;;;;6.47;6.07;;;56.50;22.50;;;;;;5069433;28;20432;-72
2023/08/21 11:04:55;;;;;;;7.90;7.17;;;56.60;22.20;;;;;;5071645;28;20392;-71
2023/08/21 11:07:21;;;;;;;5.80;5.23;;;56.30;22.20;;;;;;5071718;28;20936;-72
2023/08/21 11:09:47;;;;;;;6.87;6.30;;;56.00;22.10;;;;;;5071912;28;20431;-72
2023/08/21 11:12:15;;;;;;;5.60;5.20;;;56.30;22.80;;;;;;5070453;28;20208;-72
2023/08/21 11:14:41;;;;;;;9.83;9.13;;;56.40;22.90;;;;;;5071793;28;20406;-72
2023/08/21 11:17:09;;;;;;;7.47;6.57;;;56.00;21.20;;;;;;5071381;28;20407;-72
2023/08/21 11:19:35;;;;;;;5.97;5.57;;;56.10;22.40;;;;;;5071790;28;20161;-70
2023/08/21 11:22:05;;;;;;;6.93;6.43;;;56.50;22.50;;;;;;5071356;28;20834;-69
2023/08/21 11:24:51;;;;;;;6.67;5.90;;;56.30;22.10;;;;;;5071691;28;20396;-70
2023/08/21 11:27:18;;;;;;;7.00;6.30;;;55.90;22.60;;;;;;5055710;28;20451;-69
2023/08/21 11:29:49;;;;;;;6.63;6.07;;;55.00;22.10;;;;;;5051549;28;20401;-70
2023/08/21 11:32:19;;;;;;;6.87;6.23;;;53.50;22.60;;;;;;5051506;28;20518;-68
2023/08/21 11:34:50;;;;;;;6.53;6.03;;;51.30;23.00;;;;;;5046627;28;20496;-69
2023/08/21 11:37:20;;;;;;;8.03;7.33;;;49.20;24.20;;;;;;5050828;28;20410;-71
2023/08/21 11:39:49;;;;;;;5.33;4.83;;;47.00;25.40;;;;;;5051335;28;20806;-71
2023/08/21 11:42:15;;;;;;;6.23;5.67;;;45.60;27.00;;;;;;5051245;28;20444;-70
2023/08/21 11:44:45;;;;;;;6.27;5.67;;;44.30;28.00;;;;;;5051506;28;20482;-71
2023/08/21 11:47:10;;;;;;;6.20;5.60;;;43.70;28.90;;;;;;5051790;28;20392;-70
2023/08/21 11:49:38;;;;;;;5.37;4.70;;;44.10;29.20;;;;;;5053770;28;20726;-71
2023/08/21 11:52:04;;;;;;;6.67;5.53;;;45.30;29.20;;;;;;5054976;28;20198;-71
2023/08/21 11:54:35;;;;;;;5.00;4.50;;;45.20;28.00;;;;;;5055122;28;20451;-71
2023/08/21 11:57:21;;;;;;;5.30;4.90;;;45.40;28.20;;;;;;5045421;28;20644;-73
2023/08/21 11:59:54;;;;;;;5.43;4.93;;;46.30;28.30;;;;;;5053358;28;20466;-72
2023/08/21 12:02:27;;;;;;;8.57;5.67;;;47.70;27.40;;;;;;5058707;28;20416;-71
2023/08/21 12:04:55;;;;;;;5.63;4.33;;;47.60;26.60;;;;;;5054891;28;20379;-70
2023/08/21 12:07:20;;;;;;;5.23;4.73;;;47.40;26.60;;;;;;5054570;28;20800;-71
2023/08/21 12:09:48;;;;;;;4.83;4.20;;;47.00;26.90;;;;;;5054858;28;20372;-71
2023/08/21 12:12:14;;;;;;;5.30;4.80;;;47.20;27.10;;;;;;5054739;28;20676;-71
2023/08/21 12:14:40;;;;;;;7.83;3.70;;;48.20;26.50;;;;;;5054778;28;20404;-71
2023/08/21 12:17:05;;;;;;;4.73;4.27;;;48.80;26.10;;;;;;5065355;28;20198;-72
2023/08/21 12:19:31;;;;;;;6.07;4.90;;;49.90;25.60;;;;;;5074791;28;20788;-71
2023/08/21 12:21:58;;;;;;;5.80;4.60;;;50.70;25.10;;;;;;5073150;28;20686;-71
2023/08/21 12:24:24;;;;;;;4.23;3.87;;;51.70;24.90;;;;;;5074552;28;20740;-71
2023/08/21 12:26:49;;;;;;;5.43;4.27;;;52.70;24.90;;;;;;5073062;28;20421;-72
2023/08/21 12:29:15;;;;;;;4.50;4.20;;;53.20;24.60;;;;;;5047930;28;20509;-72
2023/08/21 12:31:40;;;;;;;4.23;3.87;;;53.80;24.20;;;;;;5045282;28;20233;-73
2023/08/21 12:34:06;;;;;;;4.50;4.13;;;54.40;23.90;;;;;;5051458;28;20166;-72
2023/08/21 12:36:34;;;;;;;4.57;4.10;;;55.00;23.80;;;;;;5042637;28;20599;-72
2023/08/21 12:39:00;;;;;;;4.53;4.13;;;55.60;23.40;;;;;;5050614;28;20651;-72
2023/08/21 12:41:25;;;;;;;4.73;4.00;;;56.00;23.30;;;;;;5054084;28;20429;-72
2023/08/21 12:43:50;;;;;;;8.33;4.13;;;56.30;22.70;;;;;;5054184;28;20173;-72